createdAt,value
2019-02-20T00:00:51.266Z,25.80
2019-02-20T00:03:20.115Z,29.37
2019-02-20T00:05:48.978Z,26.20
2019-02-20T00:08:17.830Z,23.23
2019-02-20T00:10:46.690Z,24.77
2019-02-20T00:13:15.570Z,26.20
2019-02-20T00:15:44.438Z,25.67
2019-02-20T00:18:13.291Z,25.27
2019-02-20T00:20:42.888Z,28.73
2019-02-20T00:23:11.753Z,27.77
2019-02-20T00:25:40.597Z,26.33
2019-02-20T00:28:09.438Z,24.47
2019-02-20T00:30:38.308Z,24.63
2019-02-20T00:33:07.170Z,27.25
2019-02-20T00:35:36.754Z,25.10
2019-02-20T00:38:05.648Z,22.43
2019-02-20T00:40:34.493Z,21.58
2019-02-20T00:43:03.343Z,23.02
2019-02-20T00:45:38.034Z,21.57
2019-02-20T00:48:06.860Z,21.37
2019-02-20T00:50:36.448Z,23.97
2019-02-20T00:53:05.306Z,25.97
2019-02-20T00:55:34.154Z,24.37
2019-02-20T00:58:03.010Z,24.27
2019-02-20T01:00:31.874Z,23.30
2019-02-20T01:03:00.722Z,23.03
2019-02-20T01:05:29.579Z,24.07
2019-02-20T01:07:58.426Z,23.73
2019-02-20T01:10:27.278Z,26.12
2019-02-20T01:12:56.881Z,23.57
2019-02-20T01:15:25.744Z,23.63
2019-02-20T01:17:54.590Z,24.48
2019-02-20T01:20:23.436Z,22.07
2019-02-20T01:22:59.606Z,22.03
2019-02-20T01:25:21.141Z,23.15
2019-02-20T01:27:49.997Z,21.70
2019-02-20T01:30:18.886Z,22.00
2019-02-20T01:32:51.474Z,22.63
2019-02-20T01:35:21.060Z,22.87
2019-02-20T01:37:49.926Z,24.37
2019-02-20T01:40:18.780Z,21.87
2019-02-20T01:42:47.626Z,21.87
2019-02-20T01:45:16.509Z,21.77
2019-02-20T01:47:45.332Z,24.42
2019-02-20T01:50:14.922Z,23.53
2019-02-20T01:52:44.416Z,26.73
2019-02-20T01:55:13.280Z,23.23
2019-02-20T01:57:42.132Z,24.70
2019-02-20T02:00:10.979Z,23.13
2019-02-20T02:02:39.810Z,22.50
2019-02-20T02:05:15.472Z,24.03
2019-02-20T02:07:38.994Z,19.30
2019-02-20T02:10:07.854Z,27.33
2019-02-20T02:12:36.715Z,25.03
2019-02-20T02:15:05.561Z,23.83
2019-02-20T02:17:34.431Z,23.00
2019-02-20T02:20:03.287Z,23.90
2019-02-20T02:22:32.159Z,23.27
2019-02-20T02:25:01.017Z,22.43
2019-02-20T02:27:29.865Z,23.77
2019-02-20T02:29:58.720Z,23.67
2019-02-20T02:32:28.341Z,26.10
2019-02-20T02:34:57.211Z,38.00
2019-02-20T02:37:26.065Z,45.20
2019-02-20T02:39:54.903Z,60.40
2019-02-20T02:42:24.545Z,126.30
2019-02-20T02:44:53.361Z,98.47
2019-02-20T02:47:22.223Z,165.90
2019-02-20T02:49:51.078Z,49.60
2019-02-20T02:52:19.952Z,96.80
2019-02-20T02:54:49.555Z,77.40
2019-02-20T02:57:18.403Z,51.27
2019-02-20T02:59:47.256Z,72.53
2019-02-20T03:02:16.136Z,31.43
2019-02-20T03:04:45.735Z,45.27
2019-02-20T03:07:14.589Z,85.33
2019-02-20T03:09:43.430Z,42.23
2019-02-20T03:12:12.317Z,53.00
2019-02-20T03:14:41.147Z,46.97
2019-02-20T03:17:10.010Z,53.30
2019-02-20T03:19:38.875Z,63.67
2019-02-20T03:22:08.470Z,51.80
2019-02-20T03:24:37.361Z,87.73
2019-02-20T03:27:06.181Z,140.60
2019-02-20T03:29:35.029Z,122.93
2019-02-20T03:32:03.981Z,194.30
2019-02-20T03:34:34.386Z,181.60
2019-02-20T03:37:03.267Z,141.90
2019-02-20T03:39:32.919Z,191.63
2019-02-20T03:42:01.759Z,124.33
2019-02-20T03:44:31.373Z,83.17
2019-02-20T03:47:00.971Z,80.07
2019-02-20T03:49:30.573Z,62.37
2019-02-20T03:52:00.162Z,60.17
2019-02-20T03:54:29.054Z,107.50
2019-02-20T03:56:57.880Z,94.77
2019-02-20T03:59:26.713Z,60.97
2019-02-20T04:01:55.573Z,50.53
2019-02-20T04:04:24.438Z,46.67
2019-02-20T04:06:54.043Z,50.40
2019-02-20T04:09:23.655Z,51.77
2019-02-20T04:11:53.996Z,53.87
2019-02-20T04:14:22.876Z,47.93
2019-02-20T04:16:51.754Z,32.70
2019-02-20T04:19:20.647Z,32.00
2019-02-20T04:21:49.539Z,34.73
2019-02-20T04:24:19.176Z,31.50
2019-02-20T04:26:48.081Z,31.60
2019-02-20T04:29:16.982Z,31.60
2019-02-20T04:31:45.878Z,29.80
2019-02-20T04:34:14.774Z,27.10
2019-02-20T04:36:43.609Z,34.00
2019-02-20T04:39:12.533Z,27.63
2019-02-20T04:41:41.402Z,24.50
2019-02-20T04:44:11.012Z,26.53
2019-02-20T04:46:40.593Z,25.47
2019-02-20T04:49:10.200Z,25.40
2019-02-20T04:51:39.135Z,24.80
2019-02-20T04:54:13.379Z,25.80
2019-02-20T04:56:36.890Z,26.53
2019-02-20T04:59:05.769Z,26.03
2019-02-20T05:01:34.662Z,0.30
2019-02-20T05:04:03.527Z,0.30
2019-02-20T05:06:32.425Z,30.00
2019-02-20T05:09:02.104Z,30.00
2019-02-20T05:11:31.022Z,26.33
2019-02-20T05:13:59.849Z,27.50
2019-02-20T05:16:30.268Z,30.87
2019-02-20T05:18:57.652Z,26.03
2019-02-20T05:21:26.531Z,25.20
2019-02-20T05:23:55.443Z,26.90
2019-02-20T05:26:24.308Z,26.20
2019-02-20T05:28:53.219Z,24.73
2019-02-20T05:31:22.060Z,26.60
2019-02-20T05:33:50.911Z,26.10
2019-02-20T05:36:19.856Z,24.73
2019-02-20T05:38:48.717Z,27.70
2019-02-20T05:41:17.604Z,25.93
2019-02-20T05:43:47.217Z,28.97
2019-02-20T05:46:16.145Z,28.70
2019-02-20T05:48:44.985Z,29.70
2019-02-20T05:51:14.612Z,30.47
2019-02-20T05:53:43.558Z,29.13
2019-02-20T05:56:12.785Z,29.77
2019-02-20T05:58:42.546Z,27.97
2019-02-20T06:01:13.133Z,26.47
2019-02-20T06:03:42.002Z,27.90
2019-02-20T06:06:10.857Z,26.37
2019-02-20T06:08:39.739Z,30.53
2019-02-20T06:11:14.774Z,27.83
2019-02-20T06:13:37.586Z,27.70
2019-02-20T06:16:06.479Z,30.52
2019-02-20T06:18:35.385Z,30.07
2019-02-20T06:21:04.232Z,26.63
2019-02-20T06:23:33.823Z,26.77
2019-02-20T06:26:02.748Z,29.23
2019-02-20T06:28:32.383Z,28.97
2019-02-20T06:31:01.274Z,29.23
2019-02-20T06:33:30.145Z,29.77
2019-02-20T06:35:59.054Z,27.93
2019-02-20T06:38:27.987Z,30.17
2019-02-20T06:40:56.858Z,35.87
2019-02-20T06:43:25.709Z,41.67
2019-02-20T06:45:54.618Z,37.07
2019-02-20T06:48:23.491Z,35.50
2019-02-20T06:50:52.386Z,34.97
2019-02-20T06:53:21.990Z,36.57
2019-02-20T06:55:50.925Z,36.70
2019-02-20T06:58:19.788Z,42.30
2019-02-20T07:00:48.645Z,33.63
2019-02-20T07:03:17.543Z,42.27
2019-02-20T07:05:46.406Z,30.50
2019-02-20T07:08:22.672Z,42.30
2019-02-20T07:13:41.331Z,36.08
2019-02-20T07:16:22.207Z,36.97
2019-02-20T07:19:00.356Z,35.38
2019-02-20T07:21:37.931Z,33.78
2019-02-20T07:26:59.741Z,33.45
2019-02-20T07:32:08.725Z,32.55
2019-02-20T07:34:37.587Z,32.30
2019-02-20T07:37:07.191Z,30.60
2019-02-20T07:39:36.186Z,27.40
2019-02-20T07:42:05.823Z,31.75
2019-02-20T07:44:34.739Z,28.93
2019-02-20T07:47:03.779Z,28.17
2019-02-20T07:49:32.792Z,30.80
2019-02-20T07:52:01.662Z,33.78
2019-02-20T07:54:31.296Z,31.73
2019-02-20T07:57:00.172Z,33.60
2019-02-20T07:59:29.861Z,34.05
2019-02-20T08:01:58.731Z,31.50
2019-02-20T08:04:27.592Z,30.93
2019-02-20T08:06:56.624Z,29.10
2019-02-20T08:09:25.600Z,30.83
2019-02-20T08:11:54.403Z,30.70
2019-02-20T08:14:23.280Z,31.90
2019-02-20T08:16:52.912Z,35.17
2019-02-20T08:19:22.021Z,32.13
2019-02-20T08:21:50.999Z,29.57
2019-02-20T08:24:20.633Z,32.97
2019-02-20T08:26:49.573Z,30.60
2019-02-20T08:29:18.449Z,32.50
2019-02-20T08:31:47.361Z,31.47
2019-02-20T08:34:16.272Z,31.07
2019-02-20T08:36:45.151Z,31.00
2019-02-20T08:39:14.021Z,28.90
2019-02-20T08:41:42.956Z,30.10
2019-02-20T08:44:11.797Z,29.83
2019-02-20T08:46:40.664Z,29.67
2019-02-20T08:49:09.559Z,29.57
2019-02-20T08:51:38.714Z,22.97
2019-02-20T08:54:08.347Z,29.57
2019-02-20T08:56:37.219Z,31.03
2019-02-20T08:59:06.829Z,30.30
2019-02-20T09:01:36.475Z,27.27
2019-02-20T09:04:05.447Z,30.00
2019-02-20T09:06:34.329Z,29.57
2019-02-20T09:09:03.284Z,27.97
2019-02-20T09:11:32.179Z,28.67
2019-02-20T09:14:01.671Z,28.83
2019-02-20T09:16:30.588Z,31.42
2019-02-20T09:19:00.235Z,28.67
2019-02-20T09:21:29.107Z,29.80
2019-02-20T09:23:57.983Z,30.08
2019-02-20T09:26:27.598Z,28.40
2019-02-20T09:28:56.913Z,28.07
2019-02-20T09:31:25.948Z,27.47
2019-02-20T09:33:56.658Z,30.88
2019-02-20T09:36:23.795Z,27.30
2019-02-20T09:38:52.706Z,28.80
2019-02-20T09:41:21.791Z,27.97
2019-02-20T09:43:50.841Z,27.67
2019-02-20T09:46:19.844Z,27.57
2019-02-20T09:48:48.844Z,27.53
2019-02-20T09:51:18.101Z,26.37
2019-02-20T09:53:47.027Z,25.83
2019-02-20T09:56:16.647Z,29.00
2019-02-20T09:58:45.800Z,29.90
2019-02-20T10:01:14.774Z,26.70
2019-02-20T10:03:43.643Z,25.60
2019-02-20T10:06:13.081Z,25.57
2019-02-20T10:08:41.429Z,25.80
2019-02-20T10:11:10.348Z,26.03
2019-02-20T10:13:39.338Z,26.80
2019-02-20T10:16:08.238Z,25.27
2019-02-20T10:18:37.135Z,25.90
2019-02-20T10:21:06.077Z,28.98
2019-02-20T10:23:35.013Z,27.50
2019-02-20T10:26:03.900Z,24.47
2019-02-20T10:28:33.251Z,24.53
2019-02-20T10:31:02.162Z,24.23
2019-02-20T10:33:31.068Z,23.93
2019-02-20T10:36:00.795Z,24.80
2019-02-20T10:38:29.688Z,26.23
2019-02-20T10:40:59.410Z,26.42
2019-02-20T10:43:29.021Z,22.97
2019-02-20T10:45:57.888Z,23.33
2019-02-20T10:48:27.035Z,23.07
2019-02-20T10:50:56.055Z,26.65
2019-02-20T10:53:24.997Z,23.47
2019-02-20T10:55:53.896Z,24.33
2019-02-20T10:58:23.112Z,23.17
2019-02-20T11:00:52.021Z,23.63
2019-02-20T11:03:21.104Z,24.50
2019-02-20T11:05:49.992Z,23.93
2019-02-20T11:08:18.913Z,26.43
2019-02-20T11:10:47.804Z,25.30
2019-02-20T11:13:16.654Z,24.07
2019-02-20T11:15:45.572Z,25.53
2019-02-20T11:18:14.463Z,26.17
2019-02-20T11:20:48.479Z,25.63
2019-02-20T11:23:12.426Z,25.13
2019-02-20T11:25:41.464Z,24.70
2019-02-20T11:28:10.344Z,24.37
2019-02-20T11:30:39.241Z,24.63
2019-02-20T11:33:08.127Z,24.77
2019-02-20T11:35:37.013Z,26.73
2019-02-20T11:38:05.919Z,24.70
2019-02-20T11:40:34.796Z,25.25
2019-02-20T11:43:03.774Z,25.02
2019-02-20T11:45:32.762Z,23.52
2019-02-20T11:48:01.647Z,22.33
2019-02-20T11:50:30.678Z,20.97
2019-02-20T11:53:00.288Z,21.47
2019-02-20T11:55:29.925Z,22.98
2019-02-20T11:58:00.989Z,24.70
2019-02-20T12:00:27.905Z,21.17
2019-02-20T12:02:56.782Z,22.27
2019-02-20T12:05:25.786Z,21.53
2019-02-20T12:07:54.946Z,20.37
2019-02-20T12:10:23.820Z,19.87
2019-02-20T12:12:52.703Z,18.30
2019-02-20T12:15:21.824Z,20.23
2019-02-20T12:17:51.531Z,18.37
2019-02-20T12:20:21.391Z,18.75
2019-02-20T12:22:50.661Z,18.60
2019-02-20T12:25:19.622Z,17.10
2019-02-20T12:27:49.133Z,16.62
2019-02-20T12:30:18.054Z,14.50
2019-02-20T12:32:46.968Z,12.37
2019-02-20T12:35:15.897Z,12.80
2019-02-20T12:37:44.728Z,12.60
2019-02-20T12:40:14.113Z,13.93
2019-02-20T12:42:43.061Z,12.30
2019-02-20T12:45:11.965Z,12.73
2019-02-20T12:47:40.836Z,13.93
2019-02-20T12:50:12.671Z,13.40
2019-02-20T12:52:41.562Z,11.67
2019-02-20T12:55:10.473Z,11.07
2019-02-20T12:57:39.462Z,11.90
2019-02-20T13:02:47.859Z,13.98
2019-02-20T13:05:17.578Z,12.53
2019-02-20T13:07:47.072Z,12.53
2019-02-20T13:10:15.491Z,12.00
2019-02-20T13:12:44.406Z,12.23
2019-02-20T13:15:13.333Z,13.30
2019-02-20T13:17:42.191Z,13.33
2019-02-20T13:20:11.166Z,12.37
2019-02-20T13:22:40.117Z,14.10
2019-02-20T13:25:08.999Z,15.07
2019-02-20T13:27:40.027Z,13.43
2019-02-20T13:30:07.877Z,13.07
2019-02-20T13:32:37.416Z,11.67
2019-02-20T13:35:06.283Z,12.73
2019-02-20T13:37:35.944Z,13.43
2019-02-20T13:40:05.128Z,10.80
2019-02-20T13:42:34.751Z,12.07
2019-02-20T13:45:03.765Z,11.83
2019-02-20T13:47:32.796Z,14.47
2019-02-20T13:50:01.677Z,12.20
2019-02-20T13:52:30.630Z,12.43
2019-02-20T13:54:59.507Z,12.47
2019-02-20T13:57:28.450Z,13.53
2019-02-20T13:59:58.071Z,13.33
2019-02-20T14:02:26.937Z,14.10
2019-02-20T14:04:56.550Z,11.13
2019-02-20T14:07:25.433Z,15.30
2019-02-20T14:09:55.096Z,14.93
2019-02-20T14:12:23.991Z,15.57
2019-02-20T14:14:52.868Z,14.27
2019-02-20T14:17:26.683Z,11.70
2019-02-20T14:19:51.543Z,13.13
2019-02-20T14:22:21.200Z,12.47
2019-02-20T14:24:50.314Z,12.17
2019-02-20T14:27:19.198Z,14.65
2019-02-20T14:29:48.091Z,14.15
2019-02-20T14:32:16.993Z,13.43
2019-02-20T14:34:46.620Z,11.70
2019-02-20T14:37:15.508Z,13.30
2019-02-20T14:39:44.457Z,12.57
2019-02-20T14:42:13.347Z,10.83
2019-02-20T14:44:42.254Z,11.13
2019-02-20T14:47:11.128Z,9.40
2019-02-20T14:49:40.023Z,12.00
2019-02-20T14:52:08.900Z,11.68
2019-02-20T14:54:37.754Z,13.53
2019-02-20T14:57:06.636Z,11.53
2019-02-20T14:59:35.515Z,14.90
2019-02-20T15:02:05.434Z,10.70
2019-02-20T15:04:34.480Z,11.90
2019-02-20T15:07:03.376Z,12.23
2019-02-20T15:09:32.251Z,12.30
2019-02-20T15:12:01.160Z,11.07
2019-02-20T15:14:30.066Z,11.57
2019-02-20T15:16:58.993Z,12.67
2019-02-20T15:19:27.871Z,11.88
2019-02-20T15:21:56.750Z,12.52
2019-02-20T15:24:25.678Z,11.97
2019-02-20T15:26:55.264Z,12.15
2019-02-20T15:29:24.136Z,11.70
2019-02-20T15:31:53.002Z,11.13
2019-02-20T15:34:22.194Z,13.23
2019-02-20T15:36:51.040Z,11.03
2019-02-20T15:39:19.950Z,11.40
2019-02-20T15:41:48.779Z,12.07
2019-02-20T15:44:17.670Z,13.27
2019-02-20T15:46:46.550Z,13.30
2019-02-20T15:49:15.476Z,11.48
2019-02-20T15:51:44.333Z,11.73
2019-02-20T15:54:14.168Z,13.90
2019-02-20T15:56:43.799Z,10.63
2019-02-20T15:59:12.970Z,12.47
2019-02-20T16:01:41.853Z,11.20
2019-02-20T16:04:10.734Z,12.43
2019-02-20T16:06:39.616Z,11.50
2019-02-20T16:09:08.498Z,11.00
2019-02-20T16:11:37.390Z,11.27
2019-02-20T16:14:06.891Z,11.90
2019-02-20T16:16:35.794Z,11.13
2019-02-20T16:19:04.673Z,10.50
2019-02-20T16:21:33.518Z,10.70
2019-02-20T16:24:02.897Z,10.47
2019-02-20T16:26:32.578Z,10.40
2019-02-20T16:29:01.483Z,9.30
2019-02-20T16:31:30.365Z,9.70
2019-02-20T16:33:59.386Z,11.90
2019-02-20T16:36:29.225Z,11.33
2019-02-20T16:38:58.137Z,9.07
2019-02-20T16:41:27.281Z,9.57
2019-02-20T16:43:56.884Z,10.27
2019-02-20T16:46:25.768Z,10.07
2019-02-20T16:48:54.664Z,9.67
2019-02-20T16:51:23.855Z,10.00
2019-02-20T16:53:53.498Z,12.17
2019-02-20T16:56:23.084Z,10.38
2019-02-20T16:58:52.696Z,9.33
2019-02-20T17:01:21.563Z,9.07
2019-02-20T17:03:50.461Z,11.47
2019-02-20T17:06:20.071Z,9.80
2019-02-20T17:08:49.712Z,11.02
2019-02-20T17:11:18.578Z,10.10
2019-02-20T17:13:47.480Z,11.43
2019-02-20T17:16:16.827Z,11.10
2019-02-20T17:18:45.758Z,11.10
2019-02-20T17:21:14.608Z,10.43
2019-02-20T17:23:43.481Z,10.70
2019-02-20T17:26:13.351Z,10.70
2019-02-20T17:28:42.486Z,11.20
2019-02-20T17:31:12.140Z,11.13
2019-02-20T17:33:41.093Z,10.57
2019-02-20T17:36:09.989Z,12.43
2019-02-20T17:38:38.830Z,10.63
2019-02-20T17:41:07.688Z,9.83
2019-02-20T17:43:36.584Z,11.67
2019-02-20T17:46:05.441Z,10.40
2019-02-20T17:48:34.297Z,10.53
2019-02-20T17:51:03.153Z,10.60
2019-02-20T17:53:32.750Z,11.77
2019-02-20T17:56:01.597Z,12.97
2019-02-20T17:58:30.456Z,11.37
2019-02-20T18:00:59.325Z,10.80
2019-02-20T18:03:28.920Z,11.53
2019-02-20T18:05:57.930Z,12.32
2019-02-20T18:08:26.810Z,10.73
2019-02-20T18:10:55.736Z,13.50
2019-02-20T18:13:24.631Z,13.83
2019-02-20T18:15:54.236Z,12.98
2019-02-20T18:18:23.179Z,12.98
2019-02-20T18:20:52.001Z,9.67
2019-02-20T18:23:21.598Z,10.70
2019-02-20T18:25:50.465Z,12.65
2019-02-20T18:28:24.495Z,12.68
2019-02-20T18:30:48.171Z,10.80
2019-02-20T18:33:17.779Z,11.03
2019-02-20T18:35:46.650Z,11.93
2019-02-20T18:38:15.502Z,11.33
2019-02-20T18:40:45.119Z,11.03
2019-02-20T18:43:13.972Z,11.80
2019-02-20T18:45:42.839Z,13.60
2019-02-20T18:48:12.447Z,12.17
2019-02-20T18:50:42.054Z,13.68
2019-02-20T18:53:11.703Z,14.00
2019-02-20T18:55:40.528Z,17.15
2019-02-20T18:58:09.375Z,13.90
2019-02-20T19:00:38.239Z,11.20
2019-02-20T19:03:07.095Z,12.77
2019-02-20T19:05:35.958Z,15.50
2019-02-20T19:08:10.621Z,13.90
2019-02-20T19:10:40.217Z,13.43
2019-02-20T19:15:58.229Z,18.35
2019-02-20T19:21:10.441Z,19.75
2019-02-20T19:26:28.838Z,21.33
2019-02-20T19:32:00.288Z,23.30
2019-02-20T19:34:40.250Z,19.30
2019-02-20T19:37:07.060Z,19.33
2019-02-20T19:39:43.720Z,20.13
2019-02-20T19:42:18.805Z,20.77
2019-02-20T19:47:42.393Z,22.37
2019-02-20T19:50:17.457Z,22.43
2019-02-20T19:52:55.642Z,23.90
2019-02-20T19:58:12.421Z,24.52
2019-02-20T20:00:50.051Z,21.43
2019-02-20T20:03:29.510Z,23.70
2019-02-20T20:06:00.054Z,21.90
2019-02-20T20:08:36.509Z,21.63
2019-02-20T20:11:13.729Z,22.50
2019-02-20T20:13:48.577Z,22.40
2019-02-20T20:16:27.134Z,22.40
2019-02-20T20:19:05.637Z,20.10
2019-02-20T20:21:40.857Z,22.77
2019-02-20T20:27:09.761Z,23.83
2019-02-20T20:32:27.917Z,22.60
2019-02-20T20:35:15.669Z,23.55
2019-02-20T20:37:46.120Z,20.80
2019-02-20T20:40:18.706Z,20.40
2019-02-20T20:45:39.629Z,23.17
2019-02-20T20:48:19.092Z,22.47
2019-02-20T20:50:54.657Z,23.50
2019-02-20T20:53:40.205Z,20.87
2019-02-20T20:56:17.798Z,20.73
2019-02-20T20:58:47.626Z,18.73
2019-02-20T21:04:07.883Z,21.05
2019-02-20T21:09:28.674Z,19.65
2019-02-20T21:12:02.012Z,18.47
2019-02-20T21:14:34.546Z,19.07
2019-02-20T21:17:06.698Z,19.95
2019-02-20T21:22:31.990Z,22.45
2019-02-20T21:25:14.506Z,25.47
2019-02-20T21:27:45.660Z,25.57
2019-02-20T21:30:19.167Z,28.90
2019-02-20T21:35:45.446Z,25.77
2019-02-20T21:38:17.694Z,25.03
2019-02-20T21:40:49.511Z,19.63
2019-02-20T21:48:52.247Z,20.15
2019-02-20T21:51:23.542Z,16.50
2019-02-20T21:56:45.132Z,19.83
2019-02-20T22:02:02.605Z,23.20
2019-02-20T22:04:37.558Z,22.60
2019-02-20T22:09:58.209Z,19.10
2019-02-20T22:12:29.969Z,19.07
2019-02-20T22:15:01.217Z,17.77
2019-02-20T22:17:38.701Z,19.30
2019-02-20T22:20:12.975Z,19.43
2019-02-20T22:22:50.525Z,20.88
2019-02-20T22:28:12.511Z,21.90
2019-02-20T22:30:52.881Z,19.30
2019-02-20T22:33:24.585Z,17.80
2019-02-20T22:35:55.729Z,18.10
2019-02-20T22:38:37.663Z,20.08
2019-02-20T22:43:59.975Z,20.25
2019-02-20T22:49:25.462Z,20.10
2019-02-20T22:54:54.747Z,23.40
2019-02-20T23:00:34.558Z,26.10
2019-02-20T23:05:43.701Z,22.67
2019-02-20T23:11:07.307Z,21.17
2019-02-20T23:13:46.667Z,20.17
2019-02-20T23:16:15.495Z,19.87
2019-02-20T23:18:44.405Z,21.23
2019-02-20T23:21:13.259Z,20.63
2019-02-20T23:23:42.129Z,21.00
2019-02-20T23:26:11.709Z,20.77
2019-02-20T23:28:40.578Z,23.00
2019-02-20T23:31:09.434Z,21.07
2019-02-20T23:33:38.297Z,20.20
2019-02-20T23:36:07.196Z,20.13
2019-02-20T23:38:36.029Z,19.23
2019-02-20T23:41:04.915Z,20.50
2019-02-20T23:43:33.787Z,18.10
2019-02-20T23:46:02.635Z,18.27
2019-02-20T23:48:31.551Z,17.00
2019-02-20T23:51:00.367Z,19.33
2019-02-20T23:53:29.225Z,19.13
2019-02-20T23:55:58.821Z,17.60
2019-02-20T23:58:27.682Z,18.60
